This is the latest recevied weather packets stored in our database for station/object E22ZMG-3. If no packets are shown the sender has not sent any weather packets the latest 10 day(s).
| Time | Temp. | Humidity | Pressure | Rain* | Wind** | Luminosity | Snow |
|---|---|---|---|---|---|---|---|
| 1777595136 | 29.44° C | 60% | 978 hPa | - | - | 0 W/m² | - |
| 1777594512 | 29.44° C | 60% | 978 hPa | - | - | 0 W/m² | - |
| 1777593888 | 28.89° C | 61% | 977 hPa | - | - | 0 W/m² | - |
| 1777593262 | 28.89° C | 63% | 977 hPa | - | - | 0 W/m² | - |
| 1777592637 | 29.44° C | 61% | 977 hPa | - | - | 0 W/m² | - |
| 1777592012 | 28.89° C | 61% | 977 hPa | - | - | 0 W/m² | - |
| 1777591860 | 28.33° C | 62% | 977 hPa | - | - | 0 W/m² | - |
| 1777591373 | 28.89° C | 62% | 977 hPa | - | - | 0 W/m² | - |
| 1777590879 | 27.78° C | 64% | 977 hPa | - | - | 0 W/m² | - |
| 1777590255 | 29.44° C | 59% | 977 hPa | - | - | 0 W/m² | - |
| 1777589630 | 28.89° C | 62% | 977 hPa | - | - | 0 W/m² | - |
| 1777589005 | 29.44° C | 58% | 977 hPa | - | - | 0 W/m² | - |
| 1777588381 | 29.44° C | 58% | 977 hPa | - | - | 0 W/m² | - |
| 1777587756 | 30° C | 58% | 977 hPa | - | - | 0 W/m² | - |
| 1777587132 | 29.44° C | 60% | 977 hPa | - | - | 0 W/m² | - |
| 1777586508 | 28.89° C | 61% | 976 hPa | - | - | 0 W/m² | - |
| 1777585883 | 28.89° C | 61% | 976 hPa | - | - | 0 W/m² | - |
| 1777585259 | 28.89° C | 61% | 976 hPa | - | - | 0 W/m² | - |
| 1777584634 | 29.44° C | 60% | 976 hPa | - | - | 0 W/m² | - |
| 1777584009 | 29.44° C | 59% | 976 hPa | - | - | 0 W/m² | - |
| 1777583385 | 30° C | 58% | 976 hPa | - | - | 0 W/m² | - |
| 1777582760 | 29.44° C | 58% | 976 hPa | - | - | 0 W/m² | - |
| 1777582136 | 30° C | 58% | 976 hPa | - | - | 0 W/m² | - |
| 1777581511 | 29.44° C | 59% | 976 hPa | - | - | 0 W/m² | - |
| 1777580887 | 30° C | 58% | 976 hPa | - | - | 0 W/m² | - |
* Rain since midnight (hover to see other rain measurements)
** Current wind speed in m/s (hover to see current wind gust speed)